createdAt,value
2023-08-14T00:10:35.997Z,94782.03
2023-08-14T00:25:37.944Z,94792.56
2023-08-14T00:40:40.485Z,94790.59
2023-08-14T00:55:43.344Z,94795.41
2023-08-14T01:11:18.988Z,94792.69
2023-08-14T01:26:21.430Z,94789.16
2023-08-14T01:41:56.353Z,94782.56
2023-08-14T01:56:58.633Z,94772.16
2023-08-14T02:12:01.473Z,94773.25
2023-08-14T02:27:03.463Z,94774.75
2023-08-14T02:42:05.831Z,94774.56
2023-08-14T06:00:06.576Z,94848.28
2023-08-14T06:15:09.445Z,94836.53
2023-08-14T06:30:12.389Z,94835.16
2023-08-14T06:45:14.399Z,94826.09
2023-08-14T07:00:16.658Z,94834.31
2023-08-14T07:15:18.718Z,94837.75
2023-08-14T07:30:20.785Z,94839.03
2023-08-14T07:45:22.760Z,94833.81
2023-08-14T08:00:24.664Z,94849.66
2023-08-14T08:15:27.061Z,94849.88
2023-08-14T08:30:29.119Z,94837.63
2023-08-14T08:45:37.969Z,94834.47
2023-08-14T09:00:40.146Z,94828.25
2023-08-14T09:15:45.633Z,94816.72
2023-08-14T09:30:47.630Z,94803.56
2023-08-14T09:45:49.638Z,94797.06
2023-08-14T10:00:52.091Z,94784.09
2023-08-14T10:15:57.510Z,94779.09
2023-08-14T10:31:01.247Z,94761.00
2023-08-14T10:46:09.960Z,94746.31
2023-08-14T11:01:13.195Z,94739.47
2023-08-14T11:16:15.420Z,94744.44
2023-08-14T11:31:21.496Z,94723.28
2023-08-14T11:46:29.715Z,94711.78
2023-08-14T12:01:37.913Z,94712.91
2023-08-14T12:16:41.279Z,94699.34
2023-08-14T12:31:43.561Z,94705.16
2023-08-14T12:46:46.053Z,94689.50
2023-08-14T13:01:48.349Z,94679.81
2023-08-14T13:16:50.366Z,94668.75
2023-08-14T13:31:52.327Z,94677.25
2023-08-14T13:46:54.301Z,94661.91
2023-08-14T14:01:56.294Z,94649.06
2023-08-14T14:16:59.359Z,94644.09
2023-08-14T14:32:01.354Z,94644.69
2023-08-14T14:47:03.372Z,94650.75
2023-08-14T15:02:11.996Z,94648.38
2023-08-14T15:17:14.342Z,94647.66
2023-08-14T15:32:16.321Z,94639.41
2023-08-14T15:47:18.488Z,94658.44
2023-08-14T16:02:22.686Z,94660.09
2023-08-14T16:17:24.812Z,94659.41
2023-08-14T16:32:26.869Z,94671.03
2023-08-14T16:47:29.495Z,94672.19
2023-08-14T17:02:31.530Z,94671.41
2023-08-14T17:17:33.528Z,94681.00
2023-08-14T17:32:35.572Z,94691.66
2023-08-14T17:47:37.702Z,94701.59
2023-08-14T18:02:39.838Z,94709.59
2023-08-14T18:17:41.994Z,94712.69
2023-08-14T18:32:44.061Z,94715.66
2023-08-14T18:47:46.130Z,94723.22
2023-08-14T19:02:48.030Z,94735.09
2023-08-14T19:17:50.038Z,94742.31
2023-08-14T19:32:52.697Z,94736.16
2023-08-14T19:47:55.020Z,94740.75
2023-08-14T20:02:57.115Z,94739.53
2023-08-14T20:17:59.183Z,94749.50
2023-08-14T20:33:01.475Z,94747.19
2023-08-14T20:48:04.792Z,94727.91
2023-08-14T21:03:07.514Z,94719.84
2023-08-14T21:18:09.641Z,94717.88
2023-08-14T21:33:11.709Z,94714.41
2023-08-14T21:48:13.882Z,94708.81
2023-08-14T22:03:15.907Z,94704.34
2023-08-14T22:18:17.950Z,94696.75
2023-08-14T22:33:19.923Z,94696.31
2023-08-14T22:48:21.944Z,94685.34
2023-08-14T23:03:23.928Z,94671.31
2023-08-14T23:18:25.945Z,94650.13
2023-08-14T23:33:27.934Z,94635.66
2023-08-14T23:48:29.924Z,94629.44
